Time;durP1;ratioP1;P1;durP2;ratioP2;P2;SDS_P1;SDS_P2;PMS_P1;PMS_P2;Temp;Humidity;BMP_temperature;BMP_pressure;BME280_temperature;BME280_humidity;BME280_pressure;Samples;Min_cycle;Max_cycle;Signal;HPM_P1;HPM_P2
2024/01/22 00:02:01;;;;;;;25.00;12.38;;;-5.10;99.90;;;;;;5092784;28;20078;-66
2024/01/22 00:04:27;;;;;;;25.30;13.40;;;-3.70;99.90;;;;;;5093839;28;20055;-66
2024/01/22 00:06:53;;;;;;;25.35;13.38;;;;;;;;;;5092372;28;20059;-66
2024/01/22 00:09:19;;;;;;;27.15;12.77;;;-5.10;99.90;;;;;;5092273;28;20526;-66
2024/01/22 00:11:45;;;;;;;25.80;12.95;;;-5.10;99.90;;;;;;5092314;28;20028;-66
2024/01/22 00:14:10;;;;;;;29.88;13.77;;;-5.10;99.90;;;;;;5093990;28;20114;-66
2024/01/22 00:16:39;;;;;;;27.60;13.20;;;-3.60;99.90;;;;;;5092159;28;20066;-66
2024/01/22 00:19:06;;;;;;;28.67;14.13;;;-5.10;99.90;;;;;;5093342;28;20472;-66
2024/01/22 00:21:32;;;;;;;27.15;13.75;;;-5.10;99.90;;;;;;5093273;28;20025;-66
2024/01/22 00:23:57;;;;;;;28.88;14.10;;;-3.10;99.90;;;;;;5093489;28;20027;-66
2024/01/22 00:26:23;;;;;;;29.98;13.18;;;-2.90;99.90;;;;;;5093451;28;20029;-66
2024/01/22 00:28:48;;;;;;;29.10;14.27;;;-5.10;99.90;;;;;;5093964;28;20376;-66
2024/01/22 00:31:14;;;;;;;29.02;13.63;;;-3.70;99.90;;;;;;5092137;28;20031;-66
2024/01/22 00:33:42;;;;;;;28.75;14.20;;;-3.00;99.90;;;;;;5093429;28;20027;-66
2024/01/22 00:36:12;;;;;;;30.58;13.40;;;-5.20;99.90;;;;;;5093095;28;20110;-66
2024/01/22 00:38:38;;;;;;;30.25;14.55;;;-4.50;99.90;;;;;;5093273;28;20033;-66
2024/01/22 00:41:04;;;;;;;27.15;13.27;;;-5.00;99.90;;;;;;5093631;28;20468;-66
2024/01/22 00:43:30;;;;;;;24.70;13.50;;;-5.20;99.90;;;;;;5094113;28;20030;-66
2024/01/22 00:45:57;;;;;;;26.92;12.63;;;-5.00;99.90;;;;;;5096987;28;20024;-66
2024/01/22 00:48:23;;;;;;;28.85;14.27;;;-5.20;99.90;;;;;;5095250;28;20085;-66
2024/01/22 00:50:49;;;;;;;31.92;13.93;;;-5.30;99.90;;;;;;5095319;28;20023;-66
2024/01/22 00:53:15;;;;;;;27.55;13.55;;;-3.30;99.90;;;;;;5095978;28;20108;-66
2024/01/22 00:55:40;;;;;;;32.45;14.00;;;-4.60;99.90;;;;;;5076653;28;20060;-66
2024/01/22 00:58:06;;;;;;;26.42;13.55;;;-3.40;99.90;;;;;;5058401;28;20464;-66
2024/01/22 01:00:32;;;;;;;29.33;14.10;;;-3.90;99.90;;;;;;5058500;28;20073;-66
2024/01/22 01:02:57;;;;;;;36.47;15.73;;;-5.40;99.90;;;;;;5058454;28;20025;-66
2024/01/22 01:05:23;;;;;;;32.75;14.40;;;-5.10;99.90;;;;;;5076616;28;20032;-66
2024/01/22 01:07:49;;;;;;;28.75;14.30;;;-5.40;99.90;;;;;;5076590;28;20468;-66
2024/01/22 01:10:14;;;;;;;30.88;15.77;;;-3.30;99.90;;;;;;5058610;28;20032;-65
2024/01/22 01:12:40;;;;;;;34.83;13.52;;;-5.40;99.90;;;;;;5076067;28;20533;-66
2024/01/22 01:15:06;;;;;;;35.35;15.20;;;-3.30;99.90;;;;;;5075892;28;20031;-66
2024/01/22 01:17:32;;;;;;;32.83;13.95;;;-5.30;99.90;;;;;;5058189;28;20024;-66
2024/01/22 01:19:58;;;;;;;28.08;14.10;;;-5.30;99.90;;;;;;5076040;28;20036;-66
2024/01/22 01:22:24;;;;;;;32.25;14.23;;;-5.20;99.90;;;;;;5076284;28;20031;-65
2024/01/22 01:24:50;;;;;;;31.48;13.68;;;-5.20;99.90;;;;;;5076017;28;20108;-65
2024/01/22 01:27:17;;;;;;;32.85;13.63;;;-5.20;99.90;;;;;;5075898;28;20028;-65
2024/01/22 01:29:43;;;;;;;30.00;13.82;;;-2.90;99.90;;;;;;5076114;28;20025;-65
2024/01/22 01:32:09;;;;;;;33.50;14.00;;;-3.80;99.90;;;;;;5057830;28;20020;-65
2024/01/22 01:34:34;;;;;;;34.38;13.27;;;-5.30;99.90;;;;;;5075918;28;20031;-65
2024/01/22 01:37:00;;;;;;;26.20;12.95;;;-5.30;99.90;;;;;;5075647;28;20032;-65
2024/01/22 01:39:25;;;;;;;25.92;13.00;;;-3.60;99.90;;;;;;5057770;28;20077;-65
2024/01/22 01:41:51;;;;;;;27.98;13.95;;;-4.50;99.90;;;;;;5057768;28;20069;-65
2024/01/22 01:44:17;;;;;;;28.80;13.88;;;-5.40;99.90;;;;;;5057580;28;20120;-65
2024/01/22 01:46:43;;;;;;;31.40;14.32;;;-4.90;99.90;;;;;;5057811;28;20032;-65
2024/01/22 01:49:09;;;;;;;33.10;14.05;;;-5.40;99.90;;;;;;5075495;28;20070;-65
2024/01/22 01:51:36;;;;;;;27.77;14.68;;;-5.40;99.90;;;;;;5057443;28;20101;-65
2024/01/22 01:54:04;;;;;;;33.72;13.68;;;-4.20;99.90;;;;;;5068238;28;20048;-65
2024/01/22 01:56:30;;;;;;;27.73;13.48;;;-5.50;99.90;;;;;;5094556;28;20111;-65
2024/01/22 01:58:56;;;;;;;25.63;12.18;;;-3.80;99.90;;;;;;5094480;28;20484;-65
2024/01/22 02:01:22;;;;;;;33.38;14.02;;;-4.10;99.90;;;;;;5095645;28;20468;-65
2024/01/22 02:03:48;;;;;;;30.13;13.90;;;-3.80;99.90;;;;;;5094112;28;20050;-65
2024/01/22 02:06:13;;;;;;;26.98;14.02;;;-5.50;99.90;;;;;;5095664;28;20034;-65
2024/01/22 02:08:39;;;;;;;25.45;14.02;;;-5.50;99.90;;;;;;5095333;28;20027;-65
2024/01/22 02:11:05;;;;;;;30.02;13.60;;;-5.40;99.90;;;;;;5094964;28;20028;-65
2024/01/22 02:13:31;;;;;;;30.65;14.57;;;-4.90;99.90;;;;;;5095251;28;20030;-65
2024/01/22 02:15:56;;;;;;;30.88;14.20;;;-5.50;99.90;;;;;;5095225;28;20019;-65
2024/01/22 02:18:22;;;;;;;29.88;14.50;;;-5.50;99.90;;;;;;5094790;28;20028;-65
2024/01/22 02:20:48;;;;;;;27.08;14.70;;;;;;;;;;5095063;28;20028;-65
2024/01/22 02:23:14;;;;;;;35.45;15.27;;;-5.70;99.90;;;;;;5093778;28;20024;-66
2024/01/22 02:25:39;;;;;;;35.75;14.98;;;-5.80;99.90;;;;;;5095269;28;20016;-64
2024/01/22 02:28:05;;;;;;;25.02;12.75;;;-5.80;99.90;;;;;;5095003;28;20101;-65
2024/01/22 02:30:31;;;;;;;30.02;13.70;;;-4.40;99.90;;;;;;5094320;28;20479;-66
2024/01/22 02:32:56;;;;;;;31.70;14.52;;;-5.80;99.90;;;;;;5095851;28;20028;-66
2024/01/22 02:35:22;;;;;;;31.90;15.00;;;-5.90;99.90;;;;;;5095445;28;20351;-65
2024/01/22 02:37:48;;;;;;;33.13;13.55;;;-5.90;99.90;;;;;;5094873;28;20024;-65
2024/01/22 02:40:14;;;;;;;29.85;14.23;;;-4.90;99.90;;;;;;5095288;28;20036;-65
2024/01/22 02:42:39;;;;;;;32.00;14.15;;;-5.80;99.90;;;;;;5094821;28;20020;-65
2024/01/22 02:45:07;;;;;;;26.27;13.63;;;-5.80;99.90;;;;;;5094737;28;20490;-65
2024/01/22 02:47:32;;;;;;;31.88;14.65;;;-5.80;99.90;;;;;;5093327;28;20035;-66
2024/01/22 02:50:00;;;;;;;32.88;14.63;;;-4.40;99.90;;;;;;5094609;28;20073;-65
2024/01/22 02:52:26;;;;;;;32.20;14.93;;;-3.30;99.90;;;;;;5093320;28;20024;-65
2024/01/22 02:54:52;;;;;;;25.20;13.88;;;-4.80;99.90;;;;;;5079604;28;20462;-65
2024/01/22 02:57:17;;;;;;;27.00;13.57;;;-5.90;99.90;;;;;;5073802;28;20031;-65
2024/01/22 02:59:43;;;;;;;28.75;14.57;;;-5.80;99.90;;;;;;5074211;28;20031;-65
2024/01/22 03:02:10;;;;;;;28.73;14.13;;;-5.90;99.90;;;;;;5074094;28;20048;-65
2024/01/22 03:04:35;;;;;;;30.17;14.30;;;-5.90;99.90;;;;;;5056112;28;20028;-64
2024/01/22 03:07:01;;;;;;;27.52;14.75;;;-4.00;99.90;;;;;;5056637;28;20078;-65
2024/01/22 03:09:26;;;;;;;28.60;13.80;;;-3.20;99.90;;;;;;5074568;28;20361;-65
2024/01/22 03:11:52;;;;;;;26.67;13.07;;;-3.60;99.90;;;;;;5074055;28;20149;-65
2024/01/22 03:14:18;;;;;;;26.17;13.73;;;-6.00;99.90;;;;;;5056357;28;20024;-65
2024/01/22 03:16:43;;;;;;;30.02;14.13;;;-4.60;99.90;;;;;;5073629;28;20480;-64
2024/01/22 03:19:09;;;;;;;28.10;13.70;;;-6.10;99.90;;;;;;5074171;28;20035;-65
2024/01/22 03:21:34;;;;;;;30.08;13.52;;;-6.00;99.90;;;;;;5074199;28;20107;-65
2024/01/22 03:24:00;;;;;;;28.55;14.32;;;-6.10;99.90;;;;;;5055884;28;20107;-64
2024/01/22 03:26:26;;;;;;;31.08;14.68;;;-6.00;99.90;;;;;;5073799;28;20082;-66
2024/01/22 03:28:52;;;;;;;28.05;14.40;;;-3.80;99.90;;;;;;5073805;28;20533;-65
2024/01/22 03:31:25;;;;;;;33.17;15.18;;;-6.00;99.90;;;;;;5055771;28;20028;-64
2024/01/22 03:33:52;;;;;;;29.95;15.13;;;-6.00;99.90;;;;;;5073968;28;20435;-64
2024/01/22 03:36:18;;;;;;;33.33;15.88;;;-6.00;99.90;;;;;;5055738;28;20422;-65
2024/01/22 03:38:44;;;;;;;29.83;15.88;;;-6.00;99.90;;;;;;5055708;28;20036;-65
2024/01/22 03:41:10;;;;;;;31.40;15.70;;;-5.70;99.90;;;;;;5073880;28;20032;-65
2024/01/22 03:43:35;;;;;;;32.40;16.02;;;-6.00;99.90;;;;;;5073827;28;20024;-64
2024/01/22 03:46:01;;;;;;;31.13;16.08;;;-3.90;99.90;;;;;;5073784;28;20031;-64
2024/01/22 03:48:27;;;;;;;34.05;15.98;;;-5.90;99.90;;;;;;5073628;28;20032;-64
2024/01/22 03:50:54;;;;;;;32.45;17.13;;;-5.80;99.90;;;;;;5073601;28;20021;-64
2024/01/22 03:53:20;;;;;;;27.67;15.52;;;-5.80;99.90;;;;;;5055340;28;20074;-65
2024/01/22 03:55:46;;;;;;;35.47;16.48;;;-5.80;99.90;;;;;;5055630;28;20021;-64
2024/01/22 03:58:12;;;;;;;31.17;16.13;;;-5.80;99.90;;;;;;5073155;28;20028;-64
2024/01/22 04:00:38;;;;;;;33.22;15.70;;;-4.40;99.90;;;;;;5073534;28;20029;-66
2024/01/22 04:03:04;;;;;;;30.33;15.45;;;-5.50;99.90;;;;;;5073459;28;20245;-64
2024/01/22 04:05:31;;;;;;;34.95;16.10;;;-5.70;99.90;;;;;;5055442;28;20494;-64
2024/01/22 04:07:57;;;;;;;33.17;15.65;;;-5.70;99.90;;;;;;5073421;28;20051;-65
2024/01/22 04:10:23;;;;;;;34.50;15.32;;;-5.60;99.90;;;;;;5073670;28;20099;-65
2024/01/22 04:12:49;;;;;;;33.50;15.00;;;-5.70;99.90;;;;;;5073626;28;20021;-65
2024/01/22 04:15:15;;;;;;;36.13;15.95;;;-4.90;99.90;;;;;;5073059;28;20020;-64
2024/01/22 04:17:42;;;;;;;28.08;15.38;;;-4.00;99.90;;;;;;5074217;28;20035;-64
2024/01/22 04:20:08;;;;;;;32.88;15.95;;;-5.20;99.90;;;;;;5059398;28;20028;-65
2024/01/22 04:22:33;;;;;;;34.35;16.20;;;-5.70;99.90;;;;;;5076795;28;20384;-64
2024/01/22 04:24:59;;;;;;;31.77;16.80;;;-4.30;99.90;;;;;;5059491;28;20029;-64
2024/01/22 04:27:25;;;;;;;30.55;15.38;;;-3.30;99.90;;;;;;5059385;28;20032;-64
2024/01/22 04:29:50;;;;;;;30.33;15.20;;;-5.70;99.90;;;;;;5059137;28;20032;-65
2024/01/22 04:32:16;;;;;;;28.95;16.20;;;-4.50;99.90;;;;;;5076620;28;20063;-64
2024/01/22 04:34:42;;;;;;;34.10;17.40;;;-5.80;99.90;;;;;;5059219;28;20457;-64
2024/01/22 04:37:08;;;;;;;27.55;15.13;;;-5.90;99.90;;;;;;5076461;28;20384;-64
2024/01/22 04:39:35;;;;;;;34.40;16.55;;;-5.90;99.90;;;;;;5077251;28;20499;-65
2024/01/22 04:42:00;;;;;;;35.03;15.05;;;-5.90;99.90;;;;;;5076702;28;20032;-66
2024/01/22 04:44:29;;;;;;;28.45;15.55;;;-5.40;99.90;;;;;;5059249;28;20024;-68
2024/01/22 04:46:55;;;;;;;33.30;16.63;;;-4.30;99.90;;;;;;5076665;28;20108;-65
2024/01/22 04:49:21;;;;;;;34.75;16.08;;;-4.00;99.90;;;;;;5058453;28;20086;-64
2024/01/22 04:51:47;;;;;;;32.75;15.73;;;-3.80;99.90;;;;;;5076360;28;20032;-65
2024/01/22 04:54:13;;;;;;;34.60;15.88;;;-6.00;99.90;;;;;;5073032;28;20082;-65
2024/01/22 04:56:44;;;;;;;36.13;16.10;;;-6.00;99.90;;;;;;5096486;28;20075;-65
2024/01/22 04:59:10;;;;;;;33.58;16.67;;;-3.70;99.90;;;;;;5097013;28;20039;-65
2024/01/22 05:01:36;;;;;;;32.08;15.55;;;-6.00;99.90;;;;;;5096948;28;20031;-64
2024/01/22 05:04:02;;;;;;;32.65;15.70;;;-6.10;99.90;;;;;;5096667;28;20081;-65
2024/01/22 05:06:27;;;;;;;32.90;15.30;;;-6.10;99.90;;;;;;5095267;28;20085;-64
2024/01/22 05:08:53;;;;;;;32.00;17.08;;;-4.60;99.90;;;;;;5096211;28;20028;-65
2024/01/22 05:11:18;;;;;;;35.58;16.83;;;-3.70;99.90;;;;;;5096328;28;20028;-67
2024/01/22 05:13:52;;;;;;;35.05;16.90;;;-4.40;99.90;;;;;;5096855;28;20028;-64
2024/01/22 05:16:18;;;;;;;35.92;16.67;;;-6.00;99.90;;;;;;5095216;28;20430;-64
2024/01/22 05:18:44;;;;;;;33.80;16.17;;;-3.70;99.90;;;;;;5095334;28;20434;-65
2024/01/22 05:21:11;;;;;;;32.10;16.25;;;-6.00;99.90;;;;;;5096568;28;20035;-65
2024/01/22 05:23:37;;;;;;;35.15;16.95;;;-4.00;99.90;;;;;;5096630;28;20028;-64
2024/01/22 05:26:03;;;;;;;39.75;17.60;;;-5.00;99.90;;;;;;5095124;28;20020;-65
2024/01/22 05:28:29;;;;;;;34.28;17.67;;;-5.90;99.90;;;;;;5096220;28;20042;-65
2024/01/22 05:30:54;;;;;;;35.95;16.77;;;-3.50;99.90;;;;;;5094954;28;20507;-65
2024/01/22 05:33:20;;;;;;;39.20;17.02;;;-5.90;99.90;;;;;;5096515;28;20055;-65
2024/01/22 05:35:47;;;;;;;38.20;17.48;;;-5.90;99.90;;;;;;5094821;28;20026;-66
2024/01/22 05:38:14;;;;;;;38.67;19.67;;;-5.90;99.90;;;;;;5095761;28;20351;-65
2024/01/22 05:40:40;;;;;;;31.13;16.50;;;-3.40;99.90;;;;;;5095665;28;20031;-65
2024/01/22 05:43:05;;;;;;;31.63;15.90;;;-3.60;99.90;;;;;;5095753;28;20020;-64
2024/01/22 05:45:31;;;;;;;32.90;17.10;;;-6.00;99.90;;;;;;5095484;28;20463;-65
2024/01/22 05:47:57;;;;;;;33.05;16.40;;;-6.00;99.90;;;;;;5095456;28;20089;-65
2024/01/22 05:50:23;;;;;;;30.98;16.48;;;-6.00;99.90;;;;;;5095378;28;20028;-64
2024/01/22 05:52:49;;;;;;;33.33;17.92;;;-6.00;99.90;;;;;;5095400;28;20020;-64
2024/01/22 05:55:14;;;;;;;40.20;17.67;;;-3.90;99.90;;;;;;5077905;28;20430;-64
2024/01/22 05:57:40;;;;;;;38.33;18.52;;;-6.00;99.90;;;;;;5075482;28;20377;-65
2024/01/22 06:00:12;;;;;;;42.10;19.13;;;-4.80;99.90;;;;;;5075343;28;20051;-64
2024/01/22 06:02:42;;;;;;;38.83;17.20;;;-6.00;99.90;;;;;;5057348;28;20021;-64
2024/01/22 06:05:09;;;;;;;38.05;17.60;;;-6.00;99.90;;;;;;5074856;28;20031;-65
2024/01/22 06:07:36;;;;;;;37.83;18.35;;;-4.70;99.90;;;;;;5075192;28;20119;-65
2024/01/22 06:10:03;;;;;;;38.95;18.42;;;-5.90;99.90;;;;;;5075472;28;20029;-64
2024/01/22 06:12:28;;;;;;;35.90;17.38;;;-5.90;99.90;;;;;;5075242;28;20082;-64
2024/01/22 06:14:54;;;;;;;38.97;19.33;;;-5.60;99.90;;;;;;5074695;28;20028;-64
2024/01/22 06:17:20;;;;;;;38.63;20.33;;;-5.70;99.90;;;;;;5056947;28;20028;-65
2024/01/22 06:19:45;;;;;;;37.25;18.80;;;-3.60;99.90;;;;;;5056972;28;20056;-64
2024/01/22 06:22:12;;;;;;;37.45;18.17;;;-5.90;99.90;;;;;;5074774;28;20071;-65
2024/01/22 06:24:38;;;;;;;41.22;18.63;;;-4.60;99.90;;;;;;5074812;28;20062;-65
2024/01/22 06:27:05;;;;;;;37.65;18.27;;;-5.90;99.90;;;;;;5074721;28;20036;-64
2024/01/22 06:29:30;;;;;;;40.83;19.00;;;-5.90;99.90;;;;;;5074354;28;20040;-65
2024/01/22 06:31:56;;;;;;;37.03;18.88;;;-6.00;99.90;;;;;;5074450;28;20024;-64
2024/01/22 06:34:22;;;;;;;37.97;18.42;;;-6.00;99.90;;;;;;5074868;28;20054;-65
2024/01/22 06:36:47;;;;;;;36.80;19.38;;;-4.30;99.90;;;;;;5074192;28;20166;-65
2024/01/22 06:39:13;;;;;;;32.25;17.30;;;-3.50;99.90;;;;;;5074508;28;20036;-65
2024/01/22 06:41:39;;;;;;;37.60;18.63;;;-2.80;99.90;;;;;;5056243;28;20021;-64
2024/01/22 06:44:05;;;;;;;37.63;19.40;;;-5.50;99.90;;;;;;5056538;28;20039;-65
2024/01/22 06:46:31;;;;;;;36.55;18.77;;;-5.50;99.90;;;;;;5074736;28;20029;-66
2024/01/22 06:48:56;;;;;;;43.03;20.52;;;-4.90;99.90;;;;;;5074312;28;20027;-65
2024/01/22 06:51:25;;;;;;;41.72;19.92;;;-5.90;99.90;;;;;;5056444;28;20111;-65
2024/01/22 06:53:50;;;;;;;40.38;19.33;;;-5.70;99.90;;;;;;5064507;28;20417;-65
2024/01/22 06:56:16;;;;;;;41.97;21.00;;;-5.80;99.90;;;;;;5094645;28;20089;-65
2024/01/22 06:58:42;;;;;;;40.90;19.92;;;-5.80;99.90;;;;;;5093188;28;20054;-64
2024/01/22 07:01:07;;;;;;;42.63;19.73;;;-3.70;99.90;;;;;;5094161;28;20028;-66
2024/01/22 07:03:35;;;;;;;36.30;18.35;;;-5.10;99.90;;;;;;5093242;28;20089;-65
2024/01/22 07:06:01;;;;;;;38.17;18.98;;;-5.60;99.90;;;;;;5093121;28;20146;-65
2024/01/22 07:08:26;;;;;;;37.85;18.58;;;-5.60;99.90;;;;;;5094324;28;20474;-65
2024/01/22 07:10:52;;;;;;;33.20;18.58;;;-3.10;99.90;;;;;;5094285;28;20024;-65
2024/01/22 07:13:17;;;;;;;43.42;19.73;;;-5.50;99.90;;;;;;5092876;28;20055;-65
2024/01/22 07:15:43;;;;;;;39.50;18.83;;;-5.50;99.90;;;;;;5093941;28;20032;-65
2024/01/22 07:18:09;;;;;;;39.42;18.88;;;-4.30;99.90;;;;;;5094246;28;20028;-65
2024/01/22 07:20:35;;;;;;;42.33;19.33;;;-3.90;99.90;;;;;;5095074;28;20036;-65
2024/01/22 07:23:00;;;;;;;45.42;20.98;;;-5.30;99.90;;;;;;5095183;28;20031;-65
2024/01/22 07:25:27;;;;;;;40.88;19.85;;;-5.30;99.90;;;;;;5095571;28;20022;-65
2024/01/22 07:27:52;;;;;;;39.05;19.77;;;-3.00;99.90;;;;;;5095015;28;20032;-67
2024/01/22 07:30:18;;;;;;;39.03;19.45;;;-5.10;99.90;;;;;;5094784;28;20028;-65
2024/01/22 07:32:44;;;;;;;48.75;21.58;;;-3.80;99.90;;;;;;5094300;28;20103;-66
2024/01/22 07:35:13;;;;;;;45.40;22.73;;;-4.90;99.90;;;;;;5092813;28;20064;-66
2024/01/22 07:37:44;;;;;;;45.47;24.08;;;-4.70;99.90;;;;;;5093202;28;20414;-67
2024/01/22 07:40:11;;;;;;;48.83;22.67;;;-4.20;99.90;;;;;;5094147;28;20036;-66
2024/01/22 07:42:37;;;;;;;44.40;22.95;;;-4.50;99.90;;;;;;5094748;28;20062;-65
2024/01/22 07:45:06;;;;;;;43.28;21.85;;;-4.40;99.90;;;;;;5094294;28;20035;-66
2024/01/22 07:47:33;;;;;;;37.67;19.90;;;-4.30;99.90;;;;;;5094310;28;20032;-65
2024/01/22 07:49:59;;;;;;;40.17;19.77;;;-4.20;99.90;;;;;;5094381;28;20085;-66
2024/01/22 07:52:25;;;;;;;43.40;21.95;;;-3.00;99.90;;;;;;5094020;28;20020;-66
2024/01/22 07:54:51;;;;;;;39.65;20.00;;;-3.00;99.90;;;;;;5084626;28;20066;-66
2024/01/22 07:57:17;;;;;;;38.03;20.48;;;-2.70;99.90;;;;;;5077878;28;20108;-66
2024/01/22 07:59:43;;;;;;;38.08;20.00;;;-3.60;99.90;;;;;;5078003;28;20032;-65
2024/01/22 08:02:08;;;;;;;40.28;20.88;;;-3.40;99.90;;;;;;5077796;28;20055;-65
2024/01/22 08:04:35;;;;;;;42.78;20.65;;;-3.30;99.90;;;;;;5078580;28;20040;-66
2024/01/22 08:07:03;;;;;;;43.72;20.05;;;-3.10;99.90;;;;;;5078549;28;20025;-65
2024/01/22 08:09:32;;;;;;;43.28;20.48;;;-2.90;99.90;;;;;;5060429;28;20027;-66
2024/01/22 08:11:58;;;;;;;43.53;20.25;;;-0.90;99.90;;;;;;5078574;28;20024;-65
2024/01/22 08:14:23;;;;;;;32.15;18.10;;;-2.30;99.90;;;;;;5077701;28;20017;-65
2024/01/22 08:16:49;;;;;;;37.63;17.65;;;-0.80;99.90;;;;;;5077331;28;20036;-65
2024/01/22 08:19:18;;;;;;;35.90;17.27;;;-1.50;99.90;;;;;;5077510;28;20487;-65
2024/01/22 08:21:44;;;;;;;31.52;17.30;;;-1.30;99.90;;;;;;5077652;28;20031;-66
2024/01/22 08:24:09;;;;;;;31.80;16.88;;;-0.90;99.90;;;;;;5077580;28;20028;-65
2024/01/22 08:26:35;;;;;;;27.95;16.38;;;-0.50;99.90;;;;;;5077463;28;20021;-65
2024/01/22 08:29:01;;;;;;;29.52;15.93;;;-0.20;99.90;;;;;;5077271;28;20054;-65
2024/01/22 08:31:26;;;;;;;26.25;15.82;;;0.20;99.90;;;;;;5077465;28;20025;-65
2024/01/22 08:33:54;;;;;;;29.40;17.05;;;0.60;99.90;;;;;;5077096;28;20024;-66
2024/01/22 08:36:20;;;;;;;28.45;15.25;;;0.70;99.90;;;;;;5077538;28;20024;-65
2024/01/22 08:38:45;;;;;;;24.80;15.40;;;1.00;99.90;;;;;;5059293;28;20082;-65
2024/01/22 08:41:11;;;;;;;26.17;15.63;;;1.40;99.90;;;;;;5059217;28;20028;-67
2024/01/22 08:43:37;;;;;;;29.02;16.05;;;1.70;99.90;;;;;;5077252;28;20032;-65
2024/01/22 08:46:03;;;;;;;25.63;15.15;;;1.90;99.90;;;;;;5077681;28;20115;-65
2024/01/22 08:48:30;;;;;;;24.27;15.05;;;2.30;99.90;;;;;;5077356;28;20024;-66
2024/01/22 08:50:59;;;;;;;24.48;14.43;;;2.60;99.90;;;;;;5059778;28;20040;-66
2024/01/22 08:53:25;;;;;;;25.27;15.18;;;2.80;99.90;;;;;;5059769;28;20126;-65
2024/01/22 08:55:51;;;;;;;24.00;14.38;;;3.00;99.90;;;;;;5078036;28;20480;-67
2024/01/22 08:58:16;;;;;;;24.08;14.73;;;2.80;99.80;;;;;;5059871;28;20055;-66
2024/01/22 09:00:42;;;;;;;25.70;15.60;;;3.00;99.40;;;;;;5059938;28;20078;-65
2024/01/22 09:03:08;;;;;;;27.92;15.10;;;3.20;98.80;;;;;;5077551;28;20028;-66
2024/01/22 09:05:34;;;;;;;27.90;14.93;;;3.20;97.50;;;;;;5059313;28;20033;-68
2024/01/22 09:07:59;;;;;;;25.65;15.55;;;3.10;97.50;;;;;;5059006;28;20391;-66
2024/01/22 09:10:26;;;;;;;25.20;14.13;;;2.80;97.30;;;;;;5076844;28;20028;-66
2024/01/22 09:12:52;;;;;;;25.10;14.77;;;2.40;97.70;;;;;;5077081;28;20046;-66
2024/01/22 09:15:18;;;;;;;25.98;14.93;;;2.30;98.30;;;;;;5058401;28;20111;-66
2024/01/22 09:17:44;;;;;;;27.50;14.25;;;2.10;98.20;;;;;;5058181;28;20124;-66
2024/01/22 09:20:10;;;;;;;25.90;14.02;;;2.00;98.80;;;;;;5076035;28;20024;-66
2024/01/22 09:22:37;;;;;;;29.00;14.50;;;2.10;98.60;;;;;;5076308;28;20040;-65
2024/01/22 09:25:03;;;;;;;27.83;14.25;;;2.40;98.50;;;;;;5076480;28;20037;-65
2024/01/22 09:27:29;;;;;;;24.73;13.60;;;2.50;98.20;;;;;;5058188;28;20033;-65
2024/01/22 09:29:58;;;;;;;27.55;15.52;;;2.70;97.20;;;;;;5076150;28;20032;-65
2024/01/22 09:32:25;;;;;;;28.35;14.50;;;2.70;97.20;;;;;;5076175;28;20031;-66
2024/01/22 09:34:51;;;;;;;25.98;12.80;;;2.70;97.40;;;;;;5076043;28;20063;-65
2024/01/22 09:37:17;;;;;;;22.90;13.40;;;2.90;96.80;;;;;;5075609;28;20444;-65
2024/01/22 09:39:44;;;;;;;25.73;14.25;;;2.70;96.80;;;;;;5075716;28;20111;-65
2024/01/22 09:42:12;;;;;;;23.27;12.45;;;3.00;97.00;;;;;;5057673;28;20362;-66
2024/01/22 09:44:40;;;;;;;20.13;13.15;;;3.40;95.80;;;;;;5057419;28;20111;-65
2024/01/22 09:47:06;;;;;;;25.25;16.17;;;3.80;95.30;;;;;;5075241;28;20456;-66
2024/01/22 09:49:31;;;;;;;24.02;13.00;;;4.40;93.90;;;;;;5075524;28;20108;-65
2024/01/22 09:51:57;;;;;;;21.25;12.63;;;4.80;92.60;;;;;;5057615;28;20107;-66
2024/01/22 09:54:27;;;;;;;23.67;13.60;;;4.80;91.20;;;;;;5075309;28;20053;-66
2024/01/22 09:56:54;;;;;;;26.02;12.95;;;4.60;90.80;;;;;;5075343;28;20494;-65
2024/01/22 09:59:27;;;;;;;23.00;13.27;;;4.50;91.00;;;;;;5057479;28;20068;-66
2024/01/22 10:01:53;;;;;;;25.45;12.35;;;4.50;90.70;;;;;;5075332;28;20024;-66
2024/01/22 10:04:20;;;;;;;21.77;13.30;;;4.60;90.90;;;;;;5075286;28;20024;-66
2024/01/22 10:06:46;;;;;;;21.02;12.00;;;4.60;90.60;;;;;;5057190;28;20024;-65
2024/01/22 10:09:15;;;;;;;22.85;13.48;;;4.30;90.50;;;;;;5075140;28;20042;-65
2024/01/22 10:11:49;;;;;;;27.05;13.77;;;4.00;91.10;;;;;;5075109;28;20028;-67
2024/01/22 10:14:15;;;;;;;22.73;13.02;;;3.60;91.80;;;;;;5074918;28;20443;-65
2024/01/22 10:16:41;;;;;;;25.15;12.63;;;3.60;92.50;;;;;;5056391;28;20033;-66
2024/01/22 10:19:08;;;;;;;21.98;11.52;;;3.60;92.40;;;;;;5057365;28;20032;-66
2024/01/22 10:21:35;;;;;;;22.90;12.63;;;3.60;92.40;;;;;;5075173;28;20062;-66
2024/01/22 10:24:09;;;;;;;20.90;12.20;;;3.70;92.80;;;;;;5074558;28;20037;-66
2024/01/22 10:26:35;;;;;;;24.58;12.20;;;3.60;92.80;;;;;;5075099;28;20028;-66
2024/01/22 10:29:22;;;;;;;28.80;14.18;;;3.60;92.80;;;;;;5074460;28;20460;-65
2024/01/22 10:31:59;;;;;;;31.13;12.55;;;3.50;92.70;;;;;;5074927;28;20039;-66
2024/01/22 10:34:29;;;;;;;34.17;13.55;;;3.40;93.50;;;;;;5074606;28;20025;-66
2024/01/22 10:37:12;;;;;;;25.83;12.30;;;3.30;93.70;;;;;;5074695;28;20036;-66
2024/01/22 10:39:42;;;;;;;35.03;13.10;;;3.30;94.00;;;;;;5074555;28;20052;-66
2024/01/22 10:42:14;;;;;;;26.17;12.32;;;3.50;93.90;;;;;;5074480;28;20024;-66
2024/01/22 10:44:45;;;;;;;30.63;13.05;;;3.80;93.70;;;;;;5057241;28;20419;-66
2024/01/22 10:47:15;;;;;;;27.83;13.32;;;3.90;93.50;;;;;;5074712;28;20028;-66
2024/01/22 10:49:45;;;;;;;18.27;11.25;;;4.00;93.40;;;;;;5074365;28;20103;-66
2024/01/22 10:52:12;;;;;;;34.63;13.43;;;4.30;92.50;;;;;;5056321;28;20020;-66
2024/01/22 10:54:39;;;;;;;25.60;12.52;;;4.30;92.10;;;;;;5073700;28;20052;-66
2024/01/22 10:57:08;;;;;;;35.42;14.07;;;4.50;92.20;;;;;;5074168;28;20037;-66
2024/01/22 10:59:38;;;;;;;34.20;13.93;;;4.80;91.40;;;;;;5074192;28;20047;-66
2024/01/22 11:02:12;;;;;;;29.00;12.20;;;5.10;91.00;;;;;;5074170;28;20024;-66
2024/01/22 11:04:46;;;;;;;58.55;14.02;;;5.40;90.50;;;;;;5074222;28;20472;-66
2024/01/22 11:07:13;;;;;;;37.10;14.02;;;5.70;89.60;;;;;;5056280;28;20024;-66
2024/01/22 11:09:40;;;;;;;49.83;13.63;;;6.20;88.50;;;;;;5074348;28;20426;-67
2024/01/22 11:12:13;;;;;;;28.15;13.23;;;6.70;86.00;;;;;;5074505;28;20379;-67
2024/01/22 11:14:40;;;;;;;26.42;11.85;;;7.60;82.20;;;;;;5074175;28;20024;-67
2024/01/22 11:17:06;;;;;;;26.30;12.85;;;7.90;77.80;;;;;;5073969;28;20028;-67
2024/01/22 11:19:33;;;;;;;75.90;15.82;;;8.10;74.80;;;;;;5074157;28;20082;-67
2024/01/22 11:22:00;;;;;;;18.95;12.07;;;7.80;73.90;;;;;;5055794;28;20035;-66
2024/01/22 11:24:25;;;;;;;25.63;12.45;;;7.10;73.70;;;;;;5074127;28;20024;-67
2024/01/22 11:26:51;;;;;;;21.65;12.10;;;6.70;75.10;;;;;;5055406;28;20383;-66
2024/01/22 11:29:28;;;;;;;17.83;11.90;;;6.20;75.80;;;;;;5055299;28;20025;-66
2024/01/22 11:31:54;;;;;;;21.13;12.43;;;5.60;77.20;;;;;;5055829;28;20052;-66
2024/01/22 11:34:38;;;;;;;35.50;12.82;;;5.20;79.50;;;;;;5073470;28;20095;-67
2024/01/22 11:37:04;;;;;;;32.47;12.48;;;4.60;81.00;;;;;;5055698;28;20025;-66
2024/01/22 11:39:33;;;;;;;23.20;12.32;;;4.40;83.10;;;;;;5073897;28;20033;-66
2024/01/22 11:42:20;;;;;;;41.03;13.02;;;4.00;84.70;;;;;;5074207;28;20025;-66
2024/01/22 11:44:48;;;;;;;21.67;12.15;;;3.90;86.60;;;;;;5057743;28;20098;-66
2024/01/22 11:47:15;;;;;;;30.85;12.43;;;3.70;87.50;;;;;;5073643;28;20553;-66
2024/01/22 11:49:41;;;;;;;33.28;12.95;;;3.60;88.00;;;;;;5055694;28;20029;-67
2024/01/22 11:52:14;;;;;;;20.30;12.15;;;3.60;89.00;;;;;;5073667;28;20020;-66
2024/01/22 11:55:06;;;;;;;32.17;13.05;;;3.50;88.70;;;;;;5073250;28;20369;-66
2024/01/22 11:57:36;;;;;;;24.70;12.35;;;3.30;89.80;;;;;;5055765;28;20029;-66
2024/01/22 12:00:06;;;;;;;39.03;13.73;;;3.30;90.60;;;;;;5073714;28;20488;-66
2024/01/22 12:02:33;;;;;;;32.85;12.82;;;3.50;90.90;;;;;;5073477;28;20021;-65
2024/01/22 12:05:17;;;;;;;24.15;11.75;;;3.70;90.70;;;;;;5055468;28;20021;-66
2024/01/22 12:07:44;;;;;;;26.20;11.23;;;3.90;90.10;;;;;;5073558;28;20028;-66
2024/01/22 12:10:23;;;;;;;40.13;12.30;;;4.00;90.10;;;;;;5055395;28;20024;-66
2024/01/22 12:13:00;;;;;;;25.52;11.40;;;4.10;89.80;;;;;;5073370;28;20017;-66
2024/01/22 12:15:28;;;;;;;25.08;11.68;;;4.00;89.70;;;;;;5046959;28;20037;-66
2024/01/22 12:17:55;;;;;;;19.80;12.00;;;4.00;90.20;;;;;;5053205;28;20372;-66
2024/01/22 12:20:22;;;;;;;20.90;10.98;;;4.00;90.00;;;;;;5053333;28;20461;-66
2024/01/22 12:23:04;;;;;;;20.25;11.63;;;4.00;90.40;;;;;;5053569;28;20051;-66
2024/01/22 12:25:34;;;;;;;26.83;11.98;;;3.90;90.20;;;;;;5053457;28;20018;-66
2024/01/22 12:28:13;;;;;;;22.27;10.80;;;3.80;90.60;;;;;;5035955;28;20032;-66
2024/01/22 12:30:40;;;;;;;35.25;11.10;;;3.80;90.20;;;;;;5053637;28;20373;-66